sensor_id;sensor_type;location;lat;lon;timestamp;pressure;altitude;pressure_sealevel;temperature;humidity
27429;BME280;14881;48.092;11.574;2023-01-28T00:01:16;95766.09;;;-1.36;100.00
27429;BME280;14881;48.092;11.574;2023-01-28T00:03:43;95772.06;;;-1.34;100.00
27429;BME280;14881;48.092;11.574;2023-01-28T00:06:13;95771.44;;;-1.36;100.00
27429;BME280;14881;48.092;11.574;2023-01-28T00:08:42;95763.88;;;-1.39;100.00
27429;BME280;14881;48.092;11.574;2023-01-28T00:11:11;95763.44;;;-1.36;100.00
27429;BME280;14881;48.092;11.574;2023-01-28T00:13:41;95766.09;;;-1.36;100.00
27429;BME280;14881;48.092;11.574;2023-01-28T00:16:10;95764.88;;;-1.33;100.00
27429;BME280;14881;48.092;11.574;2023-01-28T00:18:38;95760.16;;;-1.38;100.00
27429;BME280;14881;48.092;11.574;2023-01-28T00:21:08;95760.19;;;-1.45;100.00
27429;BME280;14881;48.092;11.574;2023-01-28T00:23:40;95754.84;;;-1.38;100.00
27429;BME280;14881;48.092;11.574;2023-01-28T00:26:12;95763.88;;;-1.39;100.00
27429;BME280;14881;48.092;11.574;2023-01-28T00:28:40;95760.41;;;-1.39;100.00
27429;BME280;14881;48.092;11.574;2023-01-28T00:31:10;95765.72;;;-1.39;100.00
27429;BME280;14881;48.092;11.574;2023-01-28T00:33:38;95760.59;;;-1.41;100.00
27429;BME280;14881;48.092;11.574;2023-01-28T00:36:07;95760.97;;;-1.37;100.00
27429;BME280;14881;48.092;11.574;2023-01-28T00:38:35;95766.09;;;-1.36;100.00
27429;BME280;14881;48.092;11.574;2023-01-28T00:41:07;95769.63;;;-1.42;100.00
27429;BME280;14881;48.092;11.574;2023-01-28T00:43:37;95763.47;;;-1.43;100.00
27429;BME280;14881;48.092;11.574;2023-01-28T00:46:08;95770.84;;;-1.45;100.00
27429;BME280;14881;48.092;11.574;2023-01-28T00:48:40;95760.81;;;-1.49;100.00
27429;BME280;14881;48.092;11.574;2023-01-28T00:51:09;95764.72;;;-1.45;100.00
27429;BME280;14881;48.092;11.574;2023-01-28T00:53:37;95765.53;;;-1.45;100.00
27429;BME280;14881;48.092;11.574;2023-01-28T00:56:07;95766.56;;;-1.46;100.00
27429;BME280;14881;48.092;11.574;2023-01-28T00:58:36;95766.75;;;-1.47;100.00
27429;BME280;14881;48.092;11.574;2023-01-28T01:01:08;95761.84;;;-1.44;100.00
27429;BME280;14881;48.092;11.574;2023-01-28T01:03:37;95760.41;;;-1.46;100.00
27429;BME280;14881;48.092;11.574;2023-01-28T01:06:06;95767.16;;;-1.50;100.00
27429;BME280;14881;48.092;11.574;2023-01-28T01:08:34;95771.06;;;-1.53;100.00
27429;BME280;14881;48.092;11.574;2023-01-28T01:11:06;95770.44;;;-1.48;100.00
27429;BME280;14881;48.092;11.574;2023-01-28T01:13:34;95766.56;;;-1.52;100.00
27429;BME280;14881;48.092;11.574;2023-01-28T01:16:06;95775.16;;;-1.50;100.00
27429;BME280;14881;48.092;11.574;2023-01-28T01:18:34;95774.53;;;-1.52;100.00
27429;BME280;14881;48.092;11.574;2023-01-28T01:21:06;95776.38;;;-1.53;100.00
27429;BME280;14881;48.092;11.574;2023-01-28T01:23:35;95765.31;;;-1.50;100.00
27429;BME280;14881;48.092;11.574;2023-01-28T01:26:03;95776.81;;;-1.56;100.00
27429;BME280;14881;48.092;11.574;2023-01-28T01:28:31;95778.03;;;-1.52;100.00
27429;BME280;14881;48.092;11.574;2023-01-28T01:31:02;95771.25;;;-1.54;100.00
27429;BME280;14881;48.092;11.574;2023-01-28T01:33:32;95777.41;;;-1.54;100.00
27429;BME280;14881;48.092;11.574;2023-01-28T01:35:59;95772.91;;;-1.53;100.00
27429;BME280;14881;48.092;11.574;2023-01-28T01:38:28;95775.56;;;-1.53;100.00
27429;BME280;14881;48.092;11.574;2023-01-28T01:40:56;95778.44;;;-1.55;100.00
27429;BME280;14881;48.092;11.574;2023-01-28T01:43:43;95784.41;;;-1.59;100.00
27429;BME280;14881;48.092;11.574;2023-01-28T01:46:19;95785.03;;;-1.57;100.00
27429;BME280;14881;48.092;11.574;2023-01-28T01:48:48;95778.25;;;-1.60;100.00
27429;BME280;14881;48.092;11.574;2023-01-28T01:51:20;95790.56;;;-1.59;100.00
27429;BME280;14881;48.092;11.574;2023-01-28T01:53:51;95792.41;;;-1.59;100.00
27429;BME280;14881;48.092;11.574;2023-01-28T01:56:25;95796.69;;;-1.58;100.00
27429;BME280;14881;48.092;11.574;2023-01-28T01:58:55;95796.50;;;-1.57;100.00
27429;BME280;14881;48.092;11.574;2023-01-28T02:01:27;95790.34;;;-1.57;100.00
27429;BME280;14881;48.092;11.574;2023-01-28T02:04:02;95788.72;;;-1.58;100.00
27429;BME280;14881;48.092;11.574;2023-01-28T02:06:31;95792.19;;;-1.58;100.00
27429;BME280;14881;48.092;11.574;2023-01-28T02:08:59;95792.19;;;-1.58;100.00
27429;BME280;14881;48.092;11.574;2023-01-28T02:11:29;95794.44;;;-1.61;100.00
27429;BME280;14881;48.092;11.574;2023-01-28T02:14:01;95794.03;;;-1.58;100.00
27429;BME280;14881;48.092;11.574;2023-01-28T02:16:30;95791.38;;;-1.58;100.00
27429;BME280;14881;48.092;11.574;2023-01-28T02:19:00;95795.44;;;-1.56;100.00
27429;BME280;14881;48.092;11.574;2023-01-28T02:21:57;95793.59;;;-1.55;100.00
27429;BME280;14881;48.092;11.574;2023-01-28T02:24:53;95798.34;;;-1.57;100.00
27429;BME280;14881;48.092;11.574;2023-01-28T02:27:26;95795.88;;;-1.59;100.00
27429;BME280;14881;48.092;11.574;2023-01-28T02:30:00;95795.69;;;-1.57;100.00
27429;BME280;14881;48.092;11.574;2023-01-28T02:32:33;95799.38;;;-1.58;100.00
27429;BME280;14881;48.092;11.574;2023-01-28T02:35:08;95793.84;;;-1.57;100.00
27429;BME280;14881;48.092;11.574;2023-01-28T02:37:43;95794.66;;;-1.56;100.00
27429;BME280;14881;48.092;11.574;2023-01-28T02:40:17;95794.44;;;-1.61;100.00
27429;BME280;14881;48.092;11.574;2023-01-28T02:42:47;95797.53;;;-1.58;100.00
27429;BME280;14881;48.092;11.574;2023-01-28T02:45:20;95797.72;;;-1.59;100.00
27429;BME280;14881;48.092;11.574;2023-01-28T02:47:48;95805.09;;;-1.61;100.00
27429;BME280;14881;48.092;11.574;2023-01-28T02:50:29;95804.06;;;-1.60;100.00
27429;BME280;14881;48.092;11.574;2023-01-28T02:53:08;95812.88;;;-1.60;100.00
27429;BME280;14881;48.092;11.574;2023-01-28T02:56:04;95793.81;;;-1.63;100.00
27429;BME280;14881;48.092;11.574;2023-01-28T02:58:36;95804.06;;;-1.60;100.00
27429;BME280;14881;48.092;11.574;2023-01-28T03:01:17;95803.88;;;-1.65;100.00
27429;BME280;14881;48.092;11.574;2023-01-28T03:03:57;95803.66;;;-1.64;100.00
27429;BME280;14881;48.092;11.574;2023-01-28T03:06:29;95812.88;;;-1.66;100.00
27429;BME280;14881;48.092;11.574;2023-01-28T03:09:02;95808.78;;;-1.62;100.00
27429;BME280;14881;48.092;11.574;2023-01-28T03:11:50;95807.75;;;-1.61;100.00
27429;BME280;14881;48.092;11.574;2023-01-28T03:14:37;95807.97;;;-1.63;100.00
27429;BME280;14881;48.092;11.574;2023-01-28T03:17:26;95813.09;;;-1.61;100.00
27429;BME280;14881;48.092;11.574;2023-01-28T03:20:15;95817.19;;;-1.59;100.00
27429;BME280;14881;48.092;11.574;2023-01-28T03:23:02;95814.13;;;-1.62;100.00
27429;BME280;14881;48.092;11.574;2023-01-28T03:25:53;95814.50;;;-1.65;100.00
27429;BME280;14881;48.092;11.574;2023-01-28T03:28:41;95810.63;;;-1.63;100.00
27429;BME280;14881;48.092;11.574;2023-01-28T03:31:27;95820.06;;;-1.60;100.00
27429;BME280;14881;48.092;11.574;2023-01-28T03:34:14;95825.38;;;-1.60;100.00
27429;BME280;14881;48.092;11.574;2023-01-28T03:36:59;95821.69;;;-1.59;100.00
27429;BME280;14881;48.092;11.574;2023-01-28T03:39:28;95828.44;;;-1.63;100.00
27429;BME280;14881;48.092;11.574;2023-01-28T03:41:58;95825.56;;;-1.68;100.00
27429;BME280;14881;48.092;11.574;2023-01-28T03:44:27;95822.91;;;-1.68;100.00
27429;BME280;14881;48.092;11.574;2023-01-28T03:47:12;95827.44;;;-1.62;100.00
27429;BME280;14881;48.092;11.574;2023-01-28T03:49:42;95818.00;;;-1.65;100.00
27429;BME280;14881;48.092;11.574;2023-01-28T03:52:11;95823.75;;;-1.61;100.00
27429;BME280;14881;48.092;11.574;2023-01-28T03:54:39;95832.75;;;-1.62;100.00
27429;BME280;14881;48.092;11.574;2023-01-28T03:57:07;95826.41;;;-1.61;100.00
27429;BME280;14881;48.092;11.574;2023-01-28T03:59:36;95830.31;;;-1.57;100.00
27429;BME280;14881;48.092;11.574;2023-01-28T04:02:04;95830.50;;;-1.65;100.00
27429;BME280;14881;48.092;11.574;2023-01-28T04:04:31;95832.97;;;-1.64;100.00
27429;BME280;14881;48.092;11.574;2023-01-28T04:07:00;95831.13;;;-1.63;100.00
27429;BME280;14881;48.092;11.574;2023-01-28T04:09:28;95834.81;;;-1.58;100.00
27429;BME280;14881;48.092;11.574;2023-01-28T04:11:56;95839.94;;;-1.56;100.00
27429;BME280;14881;48.092;11.574;2023-01-28T04:14:24;95843.81;;;-1.65;100.00
27429;BME280;14881;48.092;11.574;2023-01-28T04:16:51;95839.31;;;-1.65;100.00
27429;BME280;14881;48.092;11.574;2023-01-28T04:19:20;95835.63;;;-1.64;100.00
27429;BME280;14881;48.092;11.574;2023-01-28T04:21:48;95835.63;;;-1.57;100.00
27429;BME280;14881;48.092;11.574;2023-01-28T04:24:17;95847.09;;;-1.63;100.00
27429;BME280;14881;48.092;11.574;2023-01-28T04:26:45;95847.72;;;-1.61;100.00
27429;BME280;14881;48.092;11.574;2023-01-28T04:29:12;95855.28;;;-1.58;100.00
27429;BME280;14881;48.092;11.574;2023-01-28T04:31:40;95847.28;;;-1.65;100.00
27429;BME280;14881;48.092;11.574;2023-01-28T04:34:08;95846.28;;;-1.57;100.00
27429;BME280;14881;48.092;11.574;2023-01-28T04:36:36;95859.81;;;-1.59;100.00
27429;BME280;14881;48.092;11.574;2023-01-28T04:39:03;95858.97;;;-1.59;100.00
27429;BME280;14881;48.092;11.574;2023-01-28T04:41:32;95858.56;;;-1.63;100.00
27429;BME280;14881;48.092;11.574;2023-01-28T04:44:00;95861.44;;;-1.64;100.00
27429;BME280;14881;48.092;11.574;2023-01-28T04:46:28;95862.03;;;-1.62;100.00
27429;BME280;14881;48.092;11.574;2023-01-28T04:48:56;95856.72;;;-1.62;100.00
27429;BME280;14881;48.092;11.574;2023-01-28T04:51:23;95864.50;;;-1.61;100.00
27429;BME280;14881;48.092;11.574;2023-01-28T04:53:51;95861.84;;;-1.61;100.00
27429;BME280;14881;48.092;11.574;2023-01-28T04:56:19;95866.56;;;-1.56;100.00
27429;BME280;14881;48.092;11.574;2023-01-28T04:58:48;95868.41;;;-1.57;100.00
27429;BME280;14881;48.092;11.574;2023-01-28T05:01:15;95877.63;;;-1.59;100.00
27429;BME280;14881;48.092;11.574;2023-01-28T05:03:43;95873.13;;;-1.59;100.00
27429;BME280;14881;48.092;11.574;2023-01-28T05:06:11;95872.09;;;-1.58;100.00
27429;BME280;14881;48.092;11.574;2023-01-28T05:08:39;95876.81;;;-1.60;100.00
27429;BME280;14881;48.092;11.574;2023-01-28T05:11:06;95878.25;;;-1.57;100.00
27429;BME280;14881;48.092;11.574;2023-01-28T05:13:34;95879.06;;;-1.57;100.00
27429;BME280;14881;48.092;11.574;2023-01-28T05:16:03;95877.22;;;-1.56;100.00
27429;BME280;14881;48.092;11.574;2023-01-28T05:18:31;95882.75;;;-1.58;100.00
27429;BME280;14881;48.092;11.574;2023-01-28T05:20:59;95875.78;;;-1.59;100.00
27429;BME280;14881;48.092;11.574;2023-01-28T05:23:26;95876.81;;;-1.60;100.00
27429;BME280;14881;48.092;11.574;2023-01-28T05:25:54;95872.91;;;-1.64;100.00
27429;BME280;14881;48.092;11.574;2023-01-28T05:28:22;95875.16;;;-1.54;100.00
27429;BME280;14881;48.092;11.574;2023-01-28T05:30:49;95885.22;;;-1.56;100.00
27429;BME280;14881;48.092;11.574;2023-01-28T05:33:18;95889.31;;;-1.60;100.00
27429;BME280;14881;48.092;11.574;2023-01-28T05:35:46;95886.84;;;-1.62;100.00
27429;BME280;14881;48.092;11.574;2023-01-28T05:38:14;95896.66;;;-1.62;100.00
27429;BME280;14881;48.092;11.574;2023-01-28T05:40:42;95899.13;;;-1.61;100.00
27429;BME280;14881;48.092;11.574;2023-01-28T05:43:10;95897.50;;;-1.62;100.00
27429;BME280;14881;48.092;11.574;2023-01-28T05:45:38;95896.88;;;-1.57;100.00
27429;BME280;14881;48.092;11.574;2023-01-28T05:48:06;95906.91;;;-1.59;100.00
27429;BME280;14881;48.092;11.574;2023-01-28T05:50:35;95898.09;;;-1.60;100.00
27429;BME280;14881;48.092;11.574;2023-01-28T05:53:04;95907.75;;;-1.59;100.00
27429;BME280;14881;48.092;11.574;2023-01-28T05:55:32;95916.75;;;-1.53;100.00
27429;BME280;14881;48.092;11.574;2023-01-28T05:57:59;95919.22;;;-1.58;100.00
27429;BME280;14881;48.092;11.574;2023-01-28T06:00:27;95918.19;;;-1.64;100.00
27429;BME280;14881;48.092;11.574;2023-01-28T06:02:55;95917.16;;;-1.56;100.00
27429;BME280;14881;48.092;11.574;2023-01-28T06:05:23;95912.66;;;-1.62;100.00
27429;BME280;14881;48.092;11.574;2023-01-28T06:07:52;95920.44;;;-1.61;100.00
27429;BME280;14881;48.092;11.574;2023-01-28T06:10:19;95916.56;;;-1.58;100.00
27429;BME280;14881;48.092;11.574;2023-01-28T06:12:47;95922.88;;;-1.66;100.00
27429;BME280;14881;48.092;11.574;2023-01-28T06:15:15;95930.25;;;-1.68;100.00
27429;BME280;14881;48.092;11.574;2023-01-28T06:17:43;95930.44;;;-1.69;100.00
27429;BME280;14881;48.092;11.574;2023-01-28T06:20:11;95932.91;;;-1.68;100.00
27429;BME280;14881;48.092;11.574;2023-01-28T06:22:39;95936.00;;;-1.64;100.00
27429;BME280;14881;48.092;11.574;2023-01-28T06:25:08;95932.50;;;-1.71;100.00
27429;BME280;14881;48.092;11.574;2023-01-28T06:27:36;95936.41;;;-1.67;100.00
27429;BME280;14881;48.092;11.574;2023-01-28T06:30:05;95940.06;;;-1.68;100.00
27429;BME280;14881;48.092;11.574;2023-01-28T06:32:33;95941.09;;;-1.69;100.00
27429;BME280;14881;48.092;11.574;2023-01-28T06:35:00;95945.81;;;-1.71;100.00
27429;BME280;14881;48.092;11.574;2023-01-28T06:37:28;95950.31;;;-1.79;100.00
27429;BME280;14881;48.092;11.574;2023-01-28T06:39:56;95940.69;;;-1.80;100.00
27429;BME280;14881;48.092;11.574;2023-01-28T06:42:25;95946.00;;;-1.80;100.00
27429;BME280;14881;48.092;11.574;2023-01-28T06:44:52;95946.63;;;-1.78;100.00
27429;BME280;14881;48.092;11.574;2023-01-28T06:47:20;95953.38;;;-1.82;100.00
27429;BME280;14881;48.092;11.574;2023-01-28T06:49:47;95960.13;;;-1.86;100.00
27429;BME280;14881;48.092;11.574;2023-01-28T06:52:15;95957.88;;;-1.82;100.00
27429;BME280;14881;48.092;11.574;2023-01-28T06:54:43;95960.34;;;-1.81;100.00
27429;BME280;14881;48.092;11.574;2023-01-28T06:57:11;95966.28;;;-1.79;100.00
27429;BME280;14881;48.092;11.574;2023-01-28T06:59:40;95959.75;;;-1.76;100.00
27429;BME280;14881;48.092;11.574;2023-01-28T07:02:08;95967.94;;;-1.78;100.00
27429;BME280;14881;48.092;11.574;2023-01-28T07:04:37;95961.38;;;-1.75;100.00
27429;BME280;14881;48.092;11.574;2023-01-28T07:07:05;95966.09;;;-1.77;100.00
27429;BME280;14881;48.092;11.574;2023-01-28T07:09:32;95968.94;;;-1.72;100.00
27429;BME280;14881;48.092;11.574;2023-01-28T07:12:00;95972.84;;;-1.68;100.00
27429;BME280;14881;48.092;11.574;2023-01-28T07:14:30;95961.22;;;-1.60;100.00
27429;BME280;14881;48.092;11.574;2023-01-28T07:17:00;95963.84;;;-1.73;100.00
27429;BME280;14881;48.092;11.574;2023-01-28T07:19:27;95971.41;;;-1.70;100.00
27429;BME280;14881;48.092;11.574;2023-01-28T07:21:55;95959.53;;;-1.68;100.00
27429;BME280;14881;48.092;11.574;2023-01-28T07:24:26;95972.06;;;-1.62;100.00
27429;BME280;14881;48.092;11.574;2023-01-28T07:26:54;95974.53;;;-1.54;100.00
27429;BME280;14881;48.092;11.574;2023-01-28T07:29:21;95977.00;;;-1.46;100.00
27429;BME280;14881;48.092;11.574;2023-01-28T07:31:49;95981.09;;;-1.43;100.00
27429;BME280;14881;48.092;11.574;2023-01-28T07:34:18;95989.31;;;-1.45;100.00
27429;BME280;14881;48.092;11.574;2023-01-28T07:36:46;95987.25;;;-1.43;100.00
27429;BME280;14881;48.092;11.574;2023-01-28T07:39:14;95987.84;;;-1.47;100.00
27429;BME280;14881;48.092;11.574;2023-01-28T07:41:41;95995.06;;;-1.41;100.00
27429;BME280;14881;48.092;11.574;2023-01-28T07:44:09;96002.84;;;-1.33;100.00
27429;BME280;14881;48.092;11.574;2023-01-28T07:46:37;95998.94;;;-1.37;100.00
27429;BME280;14881;48.092;11.574;2023-01-28T07:49:05;95997.72;;;-1.34;100.00
27429;BME280;14881;48.092;11.574;2023-01-28T07:51:34;96004.28;;;-1.30;100.00
27429;BME280;14881;48.092;11.574;2023-01-28T07:54:01;96006.75;;;-1.29;100.00
27429;BME280;14881;48.092;11.574;2023-01-28T07:56:30;96010.44;;;-1.30;100.00
27429;BME280;14881;48.092;11.574;2023-01-28T07:58:57;96012.91;;;-1.28;100.00
27429;BME280;14881;48.092;11.574;2023-01-28T08:01:25;96013.50;;;-1.26;100.00
27429;BME280;14881;48.092;11.574;2023-01-28T08:03:53;96011.47;;;-1.24;100.00
27429;BME280;14881;48.092;11.574;2023-01-28T08:06:20;96013.50;;;-1.26;100.00
27429;BME280;14881;48.092;11.574;2023-01-28T08:08:49;96019.66;;;-1.26;100.00
27429;BME280;14881;48.092;11.574;2023-01-28T08:11:18;96023.97;;;-1.25;100.00
27429;BME280;14881;48.092;11.574;2023-01-28T08:13:47;96025.41;;;-1.22;100.00
27429;BME280;14881;48.092;11.574;2023-01-28T08:16:15;96034.63;;;-1.18;100.00
27429;BME280;14881;48.092;11.574;2023-01-28T08:18:43;96022.53;;;-1.14;100.00
27429;BME280;14881;48.092;11.574;2023-01-28T08:21:10;96023.78;;;-1.10;100.00
27429;BME280;14881;48.092;11.574;2023-01-28T08:23:38;96033.63;;;-1.04;100.00
27429;BME280;14881;48.092;11.574;2023-01-28T08:26:07;96031.34;;;-1.00;100.00
27429;BME280;14881;48.092;11.574;2023-01-28T08:28:35;96038.53;;;-1.01;100.00
27429;BME280;14881;48.092;11.574;2023-01-28T08:31:02;96041.19;;;-1.01;100.00
27429;BME280;14881;48.092;11.574;2023-01-28T08:33:30;96036.50;;;-0.99;100.00
27429;BME280;14881;48.092;11.574;2023-01-28T08:36:01;96043.88;;;-1.01;100.00
27429;BME280;14881;48.092;11.574;2023-01-28T08:38:29;96044.31;;;-1.04;100.00
27429;BME280;14881;48.092;11.574;2023-01-28T08:40:57;96042.22;;;-1.02;100.00
27429;BME280;14881;48.092;11.574;2023-01-28T08:43:26;96040.59;;;-0.96;100.00
27429;BME280;14881;48.092;11.574;2023-01-28T08:45:54;96049.63;;;-0.91;100.00
27429;BME280;14881;48.092;11.574;2023-01-28T08:48:22;96049.84;;;-0.79;100.00
27429;BME280;14881;48.092;11.574;2023-01-28T08:50:49;96040.81;;;-0.78;100.00
27429;BME280;14881;48.092;11.574;2023-01-28T08:53:18;96043.06;;;-0.82;100.00
27429;BME280;14881;48.092;11.574;2023-01-28T08:55:46;96047.78;;;-0.77;100.00
27429;BME280;14881;48.092;11.574;2023-01-28T08:58:16;96047.78;;;-0.71;100.00
27429;BME280;14881;48.092;11.574;2023-01-28T09:00:46;96050.84;;;-0.67;100.00
27429;BME280;14881;48.092;11.574;2023-01-28T09:03:14;96054.56;;;-0.61;100.00
27429;BME280;14881;48.092;11.574;2023-01-28T09:05:43;96050.44;;;-0.64;100.00
27429;BME280;14881;48.092;11.574;2023-01-28T09:08:12;96050.44;;;-0.57;100.00
27429;BME280;14881;48.092;11.574;2023-01-28T09:10:41;96050.66;;;-0.52;100.00
27429;BME280;14881;48.092;11.574;2023-01-28T09:13:10;96052.28;;;-0.45;100.00
27429;BME280;14881;48.092;11.574;2023-01-28T09:15:38;96054.75;;;-0.37;100.00
27429;BME280;14881;48.092;11.574;2023-01-28T09:18:08;96059.44;;;-0.25;100.00
27429;BME280;14881;48.092;11.574;2023-01-28T09:20:36;96052.00;;;-0.10;100.00
27429;BME280;14881;48.092;11.574;2023-01-28T09:23:05;96045.84;;;-0.11;100.00
27429;BME280;14881;48.092;11.574;2023-01-28T09:25:33;96052.63;;;-0.02;100.00
27429;BME280;14881;48.092;11.574;2023-01-28T09:28:02;96058.97;;;-0.03;100.00
27429;BME280;14881;48.092;11.574;2023-01-28T09:30:30;96059.97;;;0.10;100.00
27429;BME280;14881;48.092;11.574;2023-01-28T09:32:58;96059.72;;;0.18;100.00
27429;BME280;14881;48.092;11.574;2023-01-28T09:35:27;96063.00;;;0.26;100.00
27429;BME280;14881;48.092;11.574;2023-01-28T09:37:56;96054.97;;;0.26;100.00
27429;BME280;14881;48.092;11.574;2023-01-28T09:40:30;96049.00;;;0.31;100.00
27429;BME280;14881;48.092;11.574;2023-01-28T09:45:52;96047.75;;;0.33;100.00
27429;BME280;14881;48.092;11.574;2023-01-28T09:48:28;96051.47;;;0.32;100.00
27429;BME280;14881;48.092;11.574;2023-01-28T09:50:59;96047.34;;;0.30;100.00
27429;BME280;14881;48.092;11.574;2023-01-28T09:53:30;96042.38;;;0.40;100.00
27429;BME280;14881;48.092;11.574;2023-01-28T09:56:01;96034.75;;;0.44;100.00
27429;BME280;14881;48.092;11.574;2023-01-28T09:58:29;96045.78;;;0.54;100.00
27429;BME280;14881;48.092;11.574;2023-01-28T10:01:00;96043.22;;;0.72;100.00
27429;BME280;14881;48.092;11.574;2023-01-28T10:03:39;96033.75;;;0.76;100.00
27429;BME280;14881;48.092;11.574;2023-01-28T10:06:18;96036.53;;;0.88;100.00
27429;BME280;14881;48.092;11.574;2023-01-28T10:09:13;96030.53;;;0.99;100.00
27429;BME280;14881;48.092;11.574;2023-01-28T10:12:07;96028.78;;;1.11;100.00
27429;BME280;14881;48.092;11.574;2023-01-28T10:14:49;96032.78;;;1.02;100.00
27429;BME280;14881;48.092;11.574;2023-01-28T10:17:22;96030.06;;;1.33;100.00
27429;BME280;14881;48.092;11.574;2023-01-28T10:19:57;96030.91;;;1.52;100.00
27429;BME280;14881;48.092;11.574;2023-01-28T10:22:31;96027.81;;;1.55;100.00
27429;BME280;14881;48.092;11.574;2023-01-28T10:25:06;96019.34;;;1.33;100.00
27429;BME280;14881;48.092;11.574;2023-01-28T10:27:41;96017.97;;;1.49;100.00
27429;BME280;14881;48.092;11.574;2023-01-28T10:30:15;96013.63;;;1.73;100.00
27429;BME280;14881;48.092;11.574;2023-01-28T10:32:49;96013.91;;;1.65;100.00
27429;BME280;14881;48.092;11.574;2023-01-28T10:35:18;96018.75;;;1.93;100.00
27429;BME280;14881;48.092;11.574;2023-01-28T10:37:47;96011.59;;;1.68;100.00
27429;BME280;14881;48.092;11.574;2023-01-28T10:40:16;96013.03;;;1.89;100.00
27429;BME280;14881;48.092;11.574;2023-01-28T10:42:44;96016.91;;;1.93;100.00
27429;BME280;14881;48.092;11.574;2023-01-28T10:45:17;96013.91;;;1.83;100.00
27429;BME280;14881;48.092;11.574;2023-01-28T10:47:49;96016.78;;;2.06;100.00
27429;BME280;14881;48.092;11.574;2023-01-28T10:50:21;96011.41;;;2.06;100.00
27429;BME280;14881;48.092;11.574;2023-01-28T10:52:53;96011.09;;;1.96;100.00
27429;BME280;14881;48.092;11.574;2023-01-28T10:55:21;96001.94;;;2.04;100.00
27429;BME280;14881;48.092;11.574;2023-01-28T10:57:51;96003.13;;;2.08;100.00
27429;BME280;14881;48.092;11.574;2023-01-28T11:00:25;96013.16;;;2.31;100.00
27429;BME280;14881;48.092;11.574;2023-01-28T11:02:53;96009.97;;;2.40;100.00
27429;BME280;14881;48.092;11.574;2023-01-28T11:05:23;96003.38;;;2.55;100.00
27429;BME280;14881;48.092;11.574;2023-01-28T11:08:04;96005.16;;;2.42;100.00
27429;BME280;14881;48.092;11.574;2023-01-28T11:10:35;96009.63;;;2.00;100.00
27429;BME280;14881;48.092;11.574;2023-01-28T11:13:04;96007.53;;;2.02;100.00
27429;BME280;14881;48.092;11.574;2023-01-28T11:15:33;96006.34;;;1.98;100.00
27429;BME280;14881;48.092;11.574;2023-01-28T11:18:04;96004.84;;;2.02;100.00
27429;BME280;14881;48.092;11.574;2023-01-28T11:20:39;96008.63;;;2.13;100.00
27429;BME280;14881;48.092;11.574;2023-01-28T11:23:24;96002.19;;;2.02;100.00
27429;BME280;14881;48.092;11.574;2023-01-28T11:26:05;96006.94;;;2.19;100.00
27429;BME280;14881;48.092;11.574;2023-01-28T11:28:39;96009.53;;;1.89;100.00
27429;BME280;14881;48.092;11.574;2023-01-28T11:31:08;96011.16;;;2.08;100.00
27429;BME280;14881;48.092;11.574;2023-01-28T11:33:42;96014.09;;;2.25;100.00
27429;BME280;14881;48.092;11.574;2023-01-28T11:36:13;96015.03;;;2.30;100.00
27429;BME280;14881;48.092;11.574;2023-01-28T11:38:52;96014.63;;;2.45;100.00
27429;BME280;14881;48.092;11.574;2023-01-28T11:41:26;96010.00;;;2.52;100.00
27429;BME280;14881;48.092;11.574;2023-01-28T11:43:55;96013.91;;;2.38;100.00
27429;BME280;14881;48.092;11.574;2023-01-28T11:46:42;96019.66;;;2.41;100.00
27429;BME280;14881;48.092;11.574;2023-01-28T11:49:23;96017.00;;;2.53;100.00
27429;BME280;14881;48.092;11.574;2023-01-28T11:52:00;96008.41;;;2.63;100.00
27429;BME280;14881;48.092;11.574;2023-01-28T11:54:41;96018.38;;;2.74;100.00
27429;BME280;14881;48.092;11.574;2023-01-28T11:57:22;96013.00;;;2.44;100.00
27429;BME280;14881;48.092;11.574;2023-01-28T11:59:57;96007.78;;;2.49;100.00
27429;BME280;14881;48.092;11.574;2023-01-28T12:02:38;96002.78;;;2.53;100.00
27429;BME280;14881;48.092;11.574;2023-01-28T12:05:20;96001.25;;;2.75;100.00
27429;BME280;14881;48.092;11.574;2023-01-28T12:07:59;96005.22;;;2.84;100.00
27429;BME280;14881;48.092;11.574;2023-01-28T12:10:38;95995.00;;;2.93;100.00
27429;BME280;14881;48.092;11.574;2023-01-28T12:13:31;95997.19;;;2.96;100.00
27429;BME280;14881;48.092;11.574;2023-01-28T12:16:25;96004.03;;;2.80;100.00
27429;BME280;14881;48.092;11.574;2023-01-28T12:19:11;96001.72;;;2.84;100.00
27429;BME280;14881;48.092;11.574;2023-01-28T12:21:52;95997.34;;;3.01;100.00
27429;BME280;14881;48.092;11.574;2023-01-28T12:24:33;95996.44;;;3.07;100.00
27429;BME280;14881;48.092;11.574;2023-01-28T12:27:11;95991.88;;;3.07;100.00
27429;BME280;14881;48.092;11.574;2023-01-28T12:29:47;96001.41;;;2.92;100.00
27429;BME280;14881;48.092;11.574;2023-01-28T12:32:34;95997.84;;;3.09;100.00
27429;BME280;14881;48.092;11.574;2023-01-28T12:35:26;96004.03;;;3.10;100.00
27429;BME280;14881;48.092;11.574;2023-01-28T12:38:03;96005.00;;;3.27;100.00
27429;BME280;14881;48.092;11.574;2023-01-28T12:40:49;96013.72;;;3.11;100.00
27429;BME280;14881;48.092;11.574;2023-01-28T12:43:26;96012.06;;;2.68;100.00
27429;BME280;14881;48.092;11.574;2023-01-28T12:46:02;96006.50;;;2.82;100.00
27429;BME280;14881;48.092;11.574;2023-01-28T12:48:34;96003.13;;;2.86;100.00
27429;BME280;14881;48.092;11.574;2023-01-28T12:51:10;96013.22;;;3.02;100.00
27429;BME280;14881;48.092;11.574;2023-01-28T12:53:46;95994.47;;;3.26;100.00
27429;BME280;14881;48.092;11.574;2023-01-28T12:56:17;96003.94;;;3.28;100.00
27429;BME280;14881;48.092;11.574;2023-01-28T12:58:51;96006.38;;;3.30;100.00
27429;BME280;14881;48.092;11.574;2023-01-28T13:01:24;96005.00;;;3.27;100.00
27429;BME280;14881;48.092;11.574;2023-01-28T13:03:56;96003.34;;;3.26;100.00
27429;BME280;14881;48.092;11.574;2023-01-28T13:06:31;96005.19;;;3.14;100.00
27429;BME280;14881;48.092;11.574;2023-01-28T13:09:08;96009.94;;;3.00;100.00